createdAt,value
2023-04-02T00:00:06.411Z,99757.88
2023-04-02T00:01:23.772Z,99756.75
2023-04-02T00:02:31.009Z,99755.66
2023-04-02T00:04:05.726Z,99758.66
2023-04-02T00:05:31.051Z,99766.19
2023-04-02T00:06:40.451Z,99774.84
2023-04-02T00:07:44.938Z,99775.41
2023-04-02T00:08:48.845Z,99780.25
2023-04-02T00:09:50.423Z,99774.03
2023-04-02T00:10:56.779Z,99775.22
2023-04-02T00:12:00.376Z,99776.38
2023-04-02T00:13:05.802Z,99781.00
2023-04-02T00:14:16.592Z,99779.75
2023-04-02T00:15:19.020Z,99790.16
2023-04-02T00:16:24.803Z,99787.22
2023-04-02T00:17:27.582Z,99782.03
2023-04-02T00:18:29.525Z,99790.97
2023-04-02T00:19:37.834Z,99794.63
2023-04-02T00:20:42.905Z,99790.63
2023-04-02T00:21:47.597Z,99800.84
2023-04-02T00:22:49.158Z,99800.59
2023-04-02T00:23:55.314Z,99800.22
2023-04-02T00:24:57.428Z,99805.16
2023-04-02T00:26:01.521Z,99806.94
2023-04-02T00:27:03.296Z,99807.56
2023-04-02T00:28:05.926Z,99804.31
2023-04-02T00:29:07.973Z,99807.25
2023-04-02T00:30:13.868Z,99811.34
2023-04-02T00:31:18.822Z,99822.09
2023-04-02T00:32:25.970Z,99818.66
2023-04-02T00:33:30.306Z,99819.63
2023-04-02T00:34:38.272Z,99816.16
2023-04-02T00:35:40.266Z,99828.31
2023-04-02T00:36:46.873Z,99818.81
2023-04-02T00:37:49.868Z,99824.31
2023-04-02T00:38:52.568Z,99828.66
2023-04-02T00:40:00.804Z,99826.84
2023-04-02T00:41:07.719Z,99832.75
2023-04-02T00:42:12.940Z,99828.94
2023-04-02T00:43:17.497Z,99831.91
2023-04-02T00:44:21.663Z,99836.13
2023-04-02T00:45:29.160Z,99843.13
2023-04-02T00:46:34.590Z,99840.53
2023-04-02T00:47:39.830Z,99842.53
2023-04-02T00:48:48.950Z,99843.81
2023-04-02T00:49:56.773Z,99849.00
2023-04-02T00:51:03.739Z,99846.97
2023-04-02T00:52:08.455Z,99844.78
2023-04-02T00:53:17.292Z,99859.47
2023-04-02T00:54:22.663Z,99855.16
2023-04-02T00:55:27.202Z,99856.97
2023-04-02T00:56:35.311Z,99864.53
2023-04-02T00:57:37.256Z,99860.63
2023-04-02T00:58:39.973Z,99869.13
2023-04-02T00:59:49.100Z,99861.97
2023-04-02T01:00:53.118Z,99862.44
2023-04-02T01:02:01.545Z,99867.88
2023-04-02T01:03:35.134Z,99870.63
2023-04-02T01:04:37.047Z,99863.50
2023-04-02T01:05:40.333Z,99873.34
2023-04-02T01:06:43.867Z,99875.41
2023-04-02T01:07:58.495Z,99874.06
2023-04-02T01:09:21.441Z,99877.00
2023-04-02T01:10:41.379Z,99879.81
2023-04-02T01:12:01.976Z,99872.03
2023-04-02T01:13:14.972Z,99882.44
2023-04-02T01:14:25.703Z,99888.66
2023-04-02T01:15:38.155Z,99883.38
2023-04-02T01:16:50.402Z,99889.41
2023-04-02T01:18:13.772Z,99891.53
2023-04-02T01:19:42.350Z,99887.94
2023-04-02T01:21:21.830Z,99894.91
2023-04-02T01:22:35.366Z,99896.00
2023-04-02T01:23:49.340Z,99903.75
2023-04-02T01:24:51.160Z,99897.94
2023-04-02T01:25:59.707Z,99898.63
2023-04-02T01:27:06.266Z,99905.41
2023-04-02T01:28:19.442Z,99909.72
2023-04-02T01:29:27.551Z,99907.41
2023-04-02T01:30:29.404Z,99910.03
2023-04-02T01:31:33.311Z,99909.09
2023-04-02T01:32:35.780Z,99917.53
2023-04-02T01:33:38.497Z,99906.78
2023-04-02T01:34:41.398Z,99918.53
2023-04-02T01:35:49.798Z,99915.84
2023-04-02T01:37:04.928Z,99929.50
2023-04-02T01:38:13.782Z,99931.97
2023-04-02T01:39:31.295Z,99925.69
2023-04-02T01:40:39.959Z,99929.09
2023-04-02T01:41:48.100Z,99934.41
2023-04-02T01:42:57.632Z,99934.56
2023-04-02T01:44:05.425Z,99942.53
2023-04-02T01:45:12.238Z,99942.97
2023-04-02T01:46:25.860Z,99944.63
2023-04-02T01:47:29.725Z,99949.63
2023-04-02T01:48:31.855Z,99954.19
2023-04-02T01:49:34.396Z,99948.69
2023-04-02T01:50:38.622Z,99948.53
2023-04-02T01:51:45.785Z,99960.03
2023-04-02T01:52:50.685Z,99958.56
2023-04-02T01:53:53.472Z,99962.66
2023-04-02T01:54:57.597Z,99960.81
2023-04-02T01:56:04.760Z,99957.25
2023-04-02T01:57:08.085Z,99961.00
2023-04-02T01:58:12.467Z,99970.63
2023-04-02T01:59:16.852Z,99970.81
2023-04-02T02:00:22.408Z,99981.41
2023-04-02T02:01:28.722Z,99980.59
2023-04-02T02:02:31.457Z,99978.25
2023-04-02T02:03:34.416Z,99983.66
2023-04-02T02:04:37.240Z,99978.31
2023-04-02T02:05:39.010Z,99985.03
2023-04-02T02:06:42.128Z,99986.03
2023-04-02T02:07:44.232Z,99987.28
2023-04-02T02:08:51.041Z,99981.44
2023-04-02T02:09:53.268Z,99981.44
2023-04-02T02:10:55.831Z,99996.28
2023-04-02T02:11:58.029Z,99996.66
2023-04-02T02:13:00.803Z,99989.88
2023-04-02T02:14:11.977Z,99999.75
2023-04-02T02:15:16.648Z,99999.78
2023-04-02T02:16:21.060Z,99998.66
2023-04-02T02:17:28.374Z,100005.19
2023-04-02T02:18:32.095Z,100010.88
2023-04-02T02:19:36.902Z,100004.94
2023-04-02T02:20:39.594Z,100009.22
2023-04-02T02:21:44.564Z,100011.00
2023-04-02T02:22:49.603Z,100014.13
2023-04-02T02:23:51.509Z,100014.16
2023-04-02T02:24:54.765Z,100011.78
2023-04-02T02:25:56.842Z,100014.69
2023-04-02T02:27:15.770Z,100016.13
2023-04-02T02:28:21.436Z,100025.84
2023-04-02T02:29:27.282Z,100017.50
2023-04-02T02:30:33.316Z,100035.19
2023-04-02T02:31:41.786Z,100024.28
2023-04-02T02:32:54.436Z,100026.63
2023-04-02T02:34:01.491Z,100033.22
2023-04-02T02:35:11.326Z,100037.69
2023-04-02T02:36:22.622Z,100040.75
2023-04-02T02:37:28.343Z,100043.66
2023-04-02T02:38:43.514Z,100043.03
2023-04-02T02:39:50.253Z,100045.91
2023-04-02T02:40:57.053Z,100053.06
2023-04-02T02:42:04.369Z,100051.53
2023-04-02T02:43:12.230Z,100052.63
2023-04-02T02:44:20.736Z,100058.94
2023-04-02T02:45:26.526Z,100055.66
2023-04-02T02:46:31.463Z,100059.31
2023-04-02T02:47:38.145Z,100068.03
2023-04-02T02:48:42.722Z,100068.16
2023-04-02T02:49:47.211Z,100066.94
2023-04-02T02:50:51.516Z,100065.22
2023-04-02T02:51:59.359Z,100063.91
2023-04-02T02:53:14.747Z,100071.69
2023-04-02T02:54:18.982Z,100077.63
2023-04-02T02:55:27.479Z,100080.00
2023-04-02T02:56:31.146Z,100076.47
2023-04-02T02:57:38.564Z,100074.38
2023-04-02T02:58:40.830Z,100081.00
2023-04-02T02:59:44.588Z,100085.41
2023-04-02T03:00:47.354Z,100082.97
2023-04-02T03:01:49.960Z,100079.38
2023-04-02T03:02:56.253Z,100093.91
2023-04-02T03:03:59.162Z,100086.22
2023-04-02T03:05:02.864Z,100090.97
2023-04-02T03:06:08.401Z,100093.78
2023-04-02T03:07:10.481Z,100091.47
2023-04-02T03:08:21.624Z,100090.75
2023-04-02T03:09:33.675Z,100093.09
2023-04-02T03:10:44.860Z,100102.84
2023-04-02T03:11:53.078Z,100097.75
2023-04-02T03:13:03.248Z,100093.84
2023-04-02T03:14:16.240Z,100103.97
2023-04-02T03:15:24.477Z,100108.88
2023-04-02T03:16:32.174Z,100108.97
2023-04-02T03:17:41.799Z,100108.28
2023-04-02T03:18:52.180Z,100110.13
2023-04-02T03:19:59.352Z,100119.69
2023-04-02T03:21:08.248Z,100110.53
2023-04-02T03:22:17.388Z,100118.53
2023-04-02T03:23:24.354Z,100123.06
2023-04-02T03:24:35.818Z,100124.63
2023-04-02T03:25:41.902Z,100130.72
2023-04-02T03:26:50.387Z,100122.06
2023-04-02T03:27:56.941Z,100128.03
2023-04-02T03:29:03.811Z,100134.97
2023-04-02T03:30:23.911Z,100131.56
2023-04-02T03:31:33.042Z,100131.94
2023-04-02T03:32:39.164Z,100132.78
2023-04-02T03:33:47.046Z,100134.75
2023-04-02T03:34:52.606Z,100138.66
2023-04-02T03:36:01.913Z,100143.47
2023-04-02T03:37:12.561Z,100140.47
2023-04-02T03:38:21.015Z,100135.50
2023-04-02T03:39:29.521Z,100143.59
2023-04-02T03:40:35.230Z,100154.31
2023-04-02T03:41:43.004Z,100151.44
2023-04-02T03:42:49.044Z,100152.47
2023-04-02T03:43:57.186Z,100157.31
2023-04-02T03:45:03.073Z,100154.59
2023-04-02T03:46:16.096Z,100161.31
2023-04-02T03:47:24.637Z,100161.03
2023-04-02T03:48:31.634Z,100163.38
2023-04-02T03:49:38.990Z,100171.19
2023-04-02T03:50:46.824Z,100173.69
2023-04-02T03:51:54.975Z,100189.53
2023-04-02T03:52:58.354Z,100187.09
2023-04-02T03:54:00.190Z,100178.19
2023-04-02T03:55:10.489Z,100185.31
2023-04-02T03:56:22.834Z,100188.31
2023-04-02T03:57:36.764Z,100188.78
2023-04-02T03:58:42.786Z,100187.66
2023-04-02T03:59:52.778Z,100191.06
2023-04-02T04:00:59.660Z,100198.13
2023-04-02T04:02:11.067Z,100200.25
2023-04-02T04:03:16.008Z,100202.59
2023-04-02T04:04:20.989Z,100202.41
2023-04-02T04:05:28.868Z,100206.09
2023-04-02T04:06:34.174Z,100201.25
2023-04-02T04:07:39.321Z,100211.13
2023-04-02T04:08:46.519Z,100215.72
2023-04-02T04:09:51.702Z,100220.34
2023-04-02T04:10:58.011Z,100219.00
2023-04-02T04:12:09.712Z,100217.34
2023-04-02T04:13:16.220Z,100222.06
2023-04-02T04:14:20.115Z,100233.34
2023-04-02T04:15:28.332Z,100224.69
2023-04-02T04:16:35.911Z,100232.31
2023-04-02T04:17:51.688Z,100233.72
2023-04-02T04:19:03.050Z,100237.19
2023-04-02T04:20:17.293Z,100242.50
2023-04-02T04:21:30.326Z,100254.97
2023-04-02T04:22:33.903Z,100251.47
2023-04-02T04:23:38.418Z,100252.72
2023-04-02T04:24:45.849Z,100257.56
2023-04-02T04:25:49.416Z,100264.09
2023-04-02T04:26:56.277Z,100263.19
2023-04-02T04:28:05.694Z,100269.75
2023-04-02T04:29:18.520Z,100270.25
2023-04-02T04:30:24.972Z,100271.88
2023-04-02T04:31:34.235Z,100264.03
2023-04-02T04:32:42.662Z,100278.91
2023-04-02T04:33:50.567Z,100281.03
2023-04-02T04:34:56.650Z,100278.88
2023-04-02T04:36:00.879Z,100286.25
2023-04-02T04:37:07.873Z,100286.50
2023-04-02T04:38:16.939Z,100283.53
2023-04-02T04:39:23.373Z,100289.28
2023-04-02T04:40:30.811Z,100289.56
2023-04-02T04:41:35.871Z,100292.59
2023-04-02T04:42:41.618Z,100304.88
2023-04-02T04:43:48.026Z,100302.47
2023-04-02T04:44:58.185Z,100307.13
2023-04-02T04:46:04.228Z,100313.28
2023-04-02T04:47:11.556Z,100310.69
2023-04-02T04:48:19.169Z,100316.41
2023-04-02T04:49:27.453Z,100321.75
2023-04-02T04:50:33.201Z,100320.81
2023-04-02T04:51:40.539Z,100324.22
2023-04-02T04:52:43.599Z,100326.16
2023-04-02T04:53:49.010Z,100324.44
2023-04-02T04:54:50.899Z,100330.28
2023-04-02T04:55:56.118Z,100333.88
2023-04-02T04:57:02.594Z,100337.34
2023-04-02T04:58:15.760Z,100325.72
2023-04-02T04:59:22.730Z,100337.09
2023-04-02T05:00:31.182Z,100344.28
2023-04-02T05:01:40.882Z,100339.28
2023-04-02T05:02:51.940Z,100343.78
2023-04-02T05:04:00.370Z,100352.91
2023-04-02T05:05:03.975Z,100352.66
2023-04-02T05:06:12.866Z,100360.19
2023-04-02T05:07:18.879Z,100353.56
2023-04-02T05:08:28.024Z,100367.25
2023-04-02T05:09:35.094Z,100371.25
2023-04-02T05:10:41.990Z,100365.28
2023-04-02T05:11:47.261Z,100368.69
2023-04-02T05:12:54.768Z,100362.59
2023-04-02T05:14:01.706Z,100359.41
2023-04-02T05:15:12.676Z,100372.66
2023-04-02T05:16:21.561Z,100368.53
2023-04-02T05:17:29.467Z,100373.63
2023-04-02T05:18:37.193Z,100374.06
2023-04-02T05:19:44.595Z,100376.66
2023-04-02T05:20:52.263Z,100384.53
2023-04-02T05:21:59.333Z,100383.69
2023-04-02T05:23:07.007Z,100390.94
2023-04-02T05:24:40.211Z,100388.81
2023-04-02T05:25:53.310Z,100394.81
2023-04-02T05:27:02.161Z,100393.88
2023-04-02T05:28:08.399Z,100402.09
2023-04-02T05:29:17.131Z,100400.56
2023-04-02T05:30:41.192Z,100406.56
2023-04-02T05:31:47.875Z,100406.09
2023-04-02T05:32:54.412Z,100410.22
2023-04-02T05:33:57.884Z,100409.81
2023-04-02T05:35:00.013Z,100415.66
2023-04-02T05:36:06.772Z,100417.25
2023-04-02T05:37:17.872Z,100415.66
2023-04-02T05:38:22.653Z,100414.13
2023-04-02T05:39:28.212Z,100416.97
2023-04-02T05:40:34.013Z,100437.88
2023-04-02T05:41:41.078Z,100435.84
2023-04-02T05:42:55.885Z,100429.06
2023-04-02T05:44:06.693Z,100435.25
2023-04-02T05:45:14.033Z,100447.13
2023-04-02T05:46:19.515Z,100440.41
2023-04-02T05:47:25.581Z,100449.94
2023-04-02T05:48:32.887Z,100448.53
2023-04-02T05:49:41.818Z,100449.38
2023-04-02T05:50:47.372Z,100445.88
2023-04-02T05:51:52.483Z,100455.59
2023-04-02T05:52:59.754Z,100461.22
2023-04-02T05:54:03.758Z,100459.69
2023-04-02T05:55:37.136Z,100454.72
2023-04-02T05:56:44.682Z,100466.66
2023-04-02T05:58:07.039Z,100463.97
2023-04-02T05:59:19.957Z,100471.94
2023-04-02T06:00:29.095Z,100466.06
2023-04-02T06:01:40.517Z,100470.44
2023-04-02T06:02:53.021Z,100472.81
2023-04-02T06:04:02.022Z,100474.81
2023-04-02T06:05:07.472Z,100473.03
2023-04-02T06:06:18.546Z,100474.22
2023-04-02T06:07:24.216Z,100473.56
2023-04-02T06:08:32.842Z,100480.94
2023-04-02T06:09:41.502Z,100483.38
2023-04-02T06:10:54.587Z,100488.78
2023-04-02T06:12:05.583Z,100488.91
2023-04-02T06:13:08.874Z,100498.78
2023-04-02T06:14:13.898Z,100486.41
2023-04-02T06:15:16.787Z,100489.38
2023-04-02T06:16:22.018Z,100498.13
2023-04-02T06:17:24.024Z,100502.88
2023-04-02T06:18:28.839Z,100508.91
2023-04-02T06:19:44.589Z,100511.69
2023-04-02T06:20:46.867Z,100510.03
2023-04-02T06:21:59.275Z,100507.19
2023-04-02T06:23:07.321Z,100513.22
2023-04-02T06:24:15.391Z,100516.94
2023-04-02T06:25:23.117Z,100519.19
2023-04-02T06:26:31.332Z,100516.97
2023-04-02T06:27:34.208Z,100524.72
2023-04-02T06:28:42.146Z,100524.13
2023-04-02T06:29:46.067Z,100534.31
2023-04-02T06:30:49.556Z,100528.47
2023-04-02T06:31:54.070Z,100534.94
2023-04-02T06:32:57.795Z,100531.28
2023-04-02T06:33:59.554Z,100544.28
2023-04-02T06:35:02.456Z,100536.69
2023-04-02T06:36:06.927Z,100539.41
2023-04-02T06:37:18.392Z,100537.91
2023-04-02T06:38:25.553Z,100540.97
2023-04-02T06:39:28.026Z,100542.25
2023-04-02T06:40:41.867Z,100542.06
2023-04-02T06:41:44.760Z,100554.69
2023-04-02T06:42:50.066Z,100553.88
2023-04-02T06:43:56.111Z,100556.91
2023-04-02T06:44:58.728Z,100562.19
2023-04-02T06:46:06.206Z,100565.06
2023-04-02T06:47:18.048Z,100570.06
2023-04-02T06:48:21.033Z,100565.97
2023-04-02T06:49:27.161Z,100562.25
2023-04-02T06:50:34.293Z,100575.78
2023-04-02T06:51:38.260Z,100578.88
2023-04-02T06:52:45.842Z,100580.38
2023-04-02T06:53:50.436Z,100579.81
2023-04-02T06:54:51.997Z,100582.84
2023-04-02T06:56:02.133Z,100582.06
2023-04-02T06:57:07.087Z,100591.16
2023-04-02T06:58:10.198Z,100579.72
2023-04-02T06:59:13.786Z,100589.97
2023-04-02T07:00:27.013Z,100589.16
2023-04-02T07:01:32.583Z,100599.94
2023-04-02T07:02:38.432Z,100600.59
2023-04-02T07:03:40.520Z,100604.75
2023-04-02T07:04:43.013Z,100607.66
2023-04-02T07:05:44.607Z,100609.34
2023-04-02T07:06:47.440Z,100612.16
2023-04-02T07:07:48.912Z,100607.09
2023-04-02T07:08:51.687Z,100616.66
2023-04-02T07:09:54.343Z,100622.59
2023-04-02T07:10:56.298Z,100614.25
2023-04-02T07:11:58.829Z,100621.78
2023-04-02T07:13:02.502Z,100629.19
2023-04-02T07:14:05.877Z,100617.75
2023-04-02T07:15:08.961Z,100619.59
2023-04-02T07:16:15.726Z,100628.00
2023-04-02T07:17:20.011Z,100627.28
2023-04-02T07:18:25.869Z,100636.03
2023-04-02T07:19:28.481Z,100642.56
2023-04-02T07:20:33.170Z,100638.03
2023-04-02T07:21:34.668Z,100641.50
2023-04-02T07:22:37.149Z,100649.69
2023-04-02T07:23:38.919Z,100647.06
2023-04-02T07:24:41.365Z,100649.81
2023-04-02T07:25:43.029Z,100648.78
2023-04-02T07:26:47.587Z,100655.25
2023-04-02T07:27:49.803Z,100653.59
2023-04-02T07:28:54.307Z,100654.78
2023-04-02T07:29:56.851Z,100646.56
2023-04-02T07:30:58.534Z,100658.16
2023-04-02T07:32:01.013Z,100662.09
2023-04-02T07:33:02.610Z,100654.69
2023-04-02T07:34:06.192Z,100659.97
2023-04-02T07:35:08.533Z,100668.72
2023-04-02T07:36:15.441Z,100666.59
2023-04-02T07:37:17.956Z,100664.00
2023-04-02T07:38:19.740Z,100677.78
2023-04-02T07:39:22.231Z,100669.09
2023-04-02T07:40:24.265Z,100681.81
2023-04-02T07:41:27.557Z,100676.47
2023-04-02T07:42:29.074Z,100677.19
2023-04-02T07:43:31.621Z,100686.75
2023-04-02T07:44:34.560Z,100682.38
2023-04-02T07:45:37.394Z,100684.31
2023-04-02T07:46:40.104Z,100679.22
2023-04-02T07:47:42.329Z,100686.09
2023-04-02T07:48:45.420Z,100689.63
2023-04-02T07:49:47.851Z,100692.25
2023-04-02T07:50:49.393Z,100688.81
2023-04-02T07:51:52.980Z,100701.78
2023-04-02T07:52:54.492Z,100703.19
2023-04-02T07:53:57.160Z,100702.66
2023-04-02T07:54:58.852Z,100703.38
2023-04-02T07:56:04.014Z,100705.44
2023-04-02T07:57:05.971Z,100702.00
2023-04-02T07:58:09.682Z,100700.78
2023-04-02T07:59:12.341Z,100714.78
2023-04-02T08:00:16.361Z,100713.25
2023-04-02T08:01:20.897Z,100718.47
2023-04-02T08:02:23.286Z,100711.06
2023-04-02T08:03:26.225Z,100715.63
2023-04-02T08:04:29.099Z,100718.56
2023-04-02T08:05:30.710Z,100713.97
2023-04-02T08:06:33.185Z,100716.28
2023-04-02T08:07:35.782Z,100724.84
2023-04-02T08:08:37.902Z,100730.22
2023-04-02T08:09:40.599Z,100728.53
2023-04-02T08:10:42.114Z,100734.25
2023-04-02T08:11:47.261Z,100736.22
2023-04-02T08:12:49.826Z,100740.03
2023-04-02T08:13:52.804Z,100740.75
2023-04-02T08:14:54.341Z,100742.38
2023-04-02T08:16:00.694Z,100747.81
2023-04-02T08:17:03.219Z,100751.22
2023-04-02T08:18:05.028Z,100757.06
2023-04-02T08:19:07.934Z,100757.00
2023-04-02T08:20:15.042Z,100759.16
2023-04-02T08:21:17.568Z,100766.34
2023-04-02T08:22:20.289Z,100770.56
2023-04-02T08:23:23.233Z,100768.41
2023-04-02T08:24:24.829Z,100772.56
2023-04-02T08:25:27.824Z,100773.69
2023-04-02T08:26:29.384Z,100775.00
2023-04-02T08:27:31.873Z,100771.22
2023-04-02T08:28:33.792Z,100774.34
2023-04-02T08:29:36.696Z,100776.06
2023-04-02T08:30:41.208Z,100790.28
2023-04-02T08:31:45.066Z,100788.34
2023-04-02T08:32:46.831Z,100787.22
2023-04-02T08:33:49.709Z,100781.19
2023-04-02T08:34:51.368Z,100793.84
2023-04-02T08:35:53.922Z,100782.66
2023-04-02T08:36:57.366Z,100791.09
2023-04-02T08:37:59.978Z,100791.50
2023-04-02T08:39:01.913Z,100792.19
2023-04-02T08:40:05.103Z,100795.69
2023-04-02T08:41:07.638Z,100793.38
2023-04-02T08:42:22.627Z,100787.78
2023-04-02T08:43:38.811Z,100789.69
2023-04-02T08:44:52.741Z,100796.13
2023-04-02T08:46:06.861Z,100801.09
2023-04-02T08:47:10.940Z,100800.75
2023-04-02T08:48:15.994Z,100800.50
2023-04-02T08:49:23.106Z,100809.13
2023-04-02T08:50:33.064Z,100798.69
2023-04-02T08:51:37.452Z,100805.75
2023-04-02T08:52:39.542Z,100802.81
2023-04-02T08:53:42.175Z,100804.75
2023-04-02T08:54:43.785Z,100810.22
2023-04-02T08:55:55.807Z,100810.59
2023-04-02T08:57:02.804Z,100814.56
2023-04-02T08:58:13.361Z,100816.81
2023-04-02T08:59:25.319Z,100810.63
2023-04-02T09:00:33.526Z,100811.53
2023-04-02T09:01:47.263Z,100812.31
2023-04-02T09:02:54.598Z,100817.81
2023-04-02T09:03:59.864Z,100823.09
2023-04-02T09:05:05.049Z,100819.53
2023-04-02T09:06:13.466Z,100825.00
2023-04-02T09:07:17.612Z,100823.78
2023-04-02T09:08:24.450Z,100821.47
2023-04-02T09:09:44.097Z,100823.34
2023-04-02T09:10:52.055Z,100834.97
2023-04-02T09:11:59.051Z,100834.59
2023-04-02T09:13:03.664Z,100837.88
2023-04-02T09:14:16.923Z,100842.63
2023-04-02T09:15:26.226Z,100842.53
2023-04-02T09:16:42.476Z,100832.66
2023-04-02T09:17:53.606Z,100842.25
2023-04-02T09:18:57.271Z,100849.88
2023-04-02T09:20:05.483Z,100839.53
2023-04-02T09:21:28.414Z,100847.47
2023-04-02T09:22:34.913Z,100848.06
2023-04-02T09:23:36.646Z,100845.72
2023-04-02T09:24:39.263Z,100858.81
2023-04-02T09:25:48.464Z,100865.13
2023-04-02T09:26:56.684Z,100862.84
2023-04-02T09:28:01.366Z,100862.69
2023-04-02T09:29:25.763Z,100868.50
2023-04-02T09:30:41.908Z,100873.09
2023-04-02T09:31:47.850Z,100868.69
2023-04-02T09:32:51.926Z,100869.91
2023-04-02T09:33:54.728Z,100871.09
2023-04-02T09:35:25.539Z,100876.38
2023-04-02T09:36:39.012Z,100875.00
2023-04-02T09:37:40.717Z,100876.41
2023-04-02T09:38:58.899Z,100876.97
2023-04-02T09:40:16.937Z,100884.72
2023-04-02T09:41:20.949Z,100886.41
2023-04-02T09:42:31.713Z,100882.72
2023-04-02T09:43:35.332Z,100884.66
2023-04-02T09:44:37.868Z,100892.63
2023-04-02T09:45:41.147Z,100887.97
2023-04-02T09:46:51.074Z,100884.50
2023-04-02T09:47:55.914Z,100891.25
2023-04-02T09:49:01.804Z,100886.63
2023-04-02T09:50:29.351Z,100902.66
2023-04-02T09:51:34.278Z,100905.81
2023-04-02T09:52:37.180Z,100906.13
2023-04-02T09:53:42.430Z,100904.38
2023-04-02T09:54:44.565Z,100907.16
2023-04-02T09:55:46.997Z,100910.97
2023-04-02T09:57:03.671Z,100914.59
2023-04-02T09:58:13.254Z,100908.22
2023-04-02T09:59:17.951Z,100911.28
2023-04-02T10:00:31.487Z,100914.19
2023-04-02T10:01:36.616Z,100914.00
2023-04-02T10:02:38.707Z,100916.00
2023-04-02T10:03:43.947Z,100920.22
2023-04-02T10:04:48.103Z,100916.16
2023-04-02T10:06:05.567Z,100926.34
2023-04-02T10:07:07.181Z,100921.19
2023-04-02T10:08:19.542Z,100922.63
2023-04-02T10:09:30.390Z,100925.75
2023-04-02T10:10:36.166Z,100927.53
2023-04-02T10:11:46.396Z,100928.59
2023-04-02T10:12:57.641Z,100928.72
2023-04-02T10:14:02.860Z,100929.16
2023-04-02T10:15:06.954Z,100935.31
2023-04-02T10:16:15.407Z,100938.47
2023-04-02T10:17:23.003Z,100932.06
2023-04-02T10:18:36.436Z,100940.13
2023-04-02T10:19:41.257Z,100940.44
2023-04-02T10:20:50.955Z,100944.75
2023-04-02T10:21:57.705Z,100942.38
2023-04-02T10:22:59.431Z,100939.53
2023-04-02T10:24:02.909Z,100941.13
2023-04-02T10:25:13.815Z,100953.22
2023-04-02T10:26:27.184Z,100957.19
2023-04-02T10:27:38.408Z,100948.34
2023-04-02T10:28:56.678Z,100954.16
2023-04-02T10:30:12.257Z,100953.53
2023-04-02T10:31:20.485Z,100941.66
2023-04-02T10:32:27.476Z,100961.22
2023-04-02T10:33:36.120Z,100950.84
2023-04-02T10:34:46.093Z,100955.22
2023-04-02T10:35:56.666Z,100962.53
2023-04-02T10:37:05.873Z,100960.78
2023-04-02T10:38:38.743Z,100965.19
2023-04-02T10:39:43.099Z,100970.09
2023-04-02T10:40:50.682Z,100965.47
2023-04-02T10:41:57.920Z,100966.41
2023-04-02T10:43:33.851Z,100972.84
2023-04-02T10:44:54.138Z,100972.72
2023-04-02T10:46:05.650Z,100969.41
2023-04-02T10:47:23.467Z,100971.81
2023-04-02T10:48:35.993Z,100969.41
2023-04-02T10:49:44.035Z,100981.81
2023-04-02T10:50:55.211Z,100973.91
2023-04-02T10:52:07.697Z,100984.72
2023-04-02T10:53:15.453Z,100975.81
2023-04-02T10:54:36.466Z,100984.31
2023-04-02T10:55:43.221Z,100979.34
2023-04-02T10:56:51.091Z,100981.50
2023-04-02T10:57:54.508Z,100983.69
2023-04-02T10:58:59.347Z,100984.19
2023-04-02T11:00:08.065Z,100990.53
2023-04-02T11:01:13.570Z,100987.53
2023-04-02T11:02:25.096Z,100997.44
2023-04-02T11:03:32.094Z,100997.63
2023-04-02T11:04:40.402Z,100998.81
2023-04-02T11:05:44.769Z,101002.22
2023-04-02T11:06:48.907Z,101002.78
2023-04-02T11:07:58.031Z,101003.34
2023-04-02T11:09:01.755Z,101003.16
2023-04-02T11:10:04.812Z,101007.50
2023-04-02T11:11:09.883Z,101002.47
2023-04-02T11:12:19.683Z,101007.06
2023-04-02T11:13:24.531Z,101013.06
2023-04-02T11:14:27.609Z,101009.63
2023-04-02T11:15:30.632Z,101021.03
2023-04-02T11:16:35.119Z,101023.56
2023-04-02T11:17:38.401Z,101015.94
2023-04-02T11:18:40.926Z,101022.53
2023-04-02T11:19:42.986Z,101019.84
2023-04-02T11:20:57.346Z,101021.34
2023-04-02T11:22:01.964Z,101021.78
2023-04-02T11:23:10.051Z,101026.56
2023-04-02T11:24:24.635Z,101022.59
2023-04-02T11:25:26.021Z,101023.75
2023-04-02T11:26:32.260Z,101029.50
2023-04-02T11:27:35.139Z,101032.13
2023-04-02T11:28:36.569Z,101028.22
2023-04-02T11:29:39.481Z,101035.16
2023-04-02T11:30:42.540Z,101041.44
2023-04-02T11:31:45.779Z,101039.34
2023-04-02T11:32:49.791Z,101040.38
2023-04-02T11:33:51.510Z,101036.09
2023-04-02T11:35:24.828Z,101042.09
2023-04-02T11:36:47.988Z,101046.53
2023-04-02T11:37:50.789Z,101038.91
2023-04-02T11:38:54.987Z,101040.69
2023-04-02T11:40:00.840Z,101044.19
2023-04-02T11:41:02.569Z,101045.19
2023-04-02T11:42:06.252Z,101050.59
2023-04-02T11:43:27.505Z,101050.25
2023-04-02T11:44:29.918Z,101055.31
2023-04-02T11:45:55.547Z,101047.53
2023-04-02T11:47:17.457Z,101055.78
2023-04-02T11:48:29.470Z,101058.53
2023-04-02T11:49:36.836Z,101056.06
2023-04-02T11:50:39.997Z,101059.88
2023-04-02T11:51:50.787Z,101060.00
2023-04-02T11:52:55.653Z,101056.81
2023-04-02T11:53:58.680Z,101054.59
2023-04-02T11:55:02.706Z,101060.69
2023-04-02T11:56:19.545Z,101054.53
2023-04-02T11:57:28.194Z,101057.75
2023-04-02T11:58:35.459Z,101065.97
2023-04-02T11:59:41.174Z,101067.09
2023-04-02T12:00:54.707Z,101065.28
2023-04-02T12:02:08.011Z,101061.91
2023-04-02T12:03:18.958Z,101068.28
2023-04-02T12:04:33.124Z,101068.75
2023-04-02T12:05:43.284Z,101067.47
2023-04-02T12:06:54.806Z,101073.09
2023-04-02T12:08:05.168Z,101073.31
2023-04-02T12:09:15.369Z,101072.13
2023-04-02T12:10:19.128Z,101074.34
2023-04-02T12:11:30.729Z,101070.81
2023-04-02T12:12:35.109Z,101077.47
2023-04-02T12:13:51.795Z,101071.25
2023-04-02T12:14:55.840Z,101077.91
2023-04-02T12:15:57.546Z,101074.53
2023-04-02T12:17:00.455Z,101075.44
2023-04-02T12:18:06.432Z,101075.56
2023-04-02T12:19:09.586Z,101077.75
2023-04-02T12:20:20.323Z,101080.13
2023-04-02T12:21:24.571Z,101083.03
2023-04-02T12:22:28.042Z,101084.06
2023-04-02T12:23:31.387Z,101084.41
2023-04-02T12:24:35.323Z,101078.72
2023-04-02T12:25:40.225Z,101081.41
2023-04-02T12:26:46.307Z,101085.44
2023-04-02T12:27:47.869Z,101089.06
2023-04-02T12:28:50.205Z,101089.94
2023-04-02T12:29:52.252Z,101081.69
2023-04-02T12:31:03.454Z,101088.28
2023-04-02T12:32:13.018Z,101087.00
2023-04-02T12:33:16.527Z,101089.94
2023-04-02T12:34:18.829Z,101095.78
2023-04-02T12:35:28.765Z,101095.25
2023-04-02T12:36:31.799Z,101091.03
2023-04-02T12:37:33.193Z,101086.50
2023-04-02T12:38:37.842Z,101097.22
2023-04-02T12:39:40.553Z,101087.59
2023-04-02T12:40:51.877Z,101092.06
2023-04-02T12:41:54.851Z,101090.19
2023-04-02T12:42:57.256Z,101088.38
2023-04-02T12:43:59.406Z,101093.69
2023-04-02T12:45:02.796Z,101090.97
2023-04-02T12:46:05.555Z,101105.47
2023-04-02T12:47:08.060Z,101095.25
2023-04-02T12:48:12.330Z,101097.91
2023-04-02T12:49:21.672Z,101104.25